sensor_id;sensor_type;location;lat;lon;timestamp;pressure;altitude;pressure_sealevel;temperature;humidity
50364;BME280;36272;59.400;17.982;2023-05-11T00:04:18;101982.22;;;10.54;51.29
50364;BME280;36272;59.400;17.982;2023-05-11T00:09:20;101987.50;;;10.47;51.46
50364;BME280;36272;59.400;17.982;2023-05-11T00:14:22;101982.47;;;10.37;51.72
50364;BME280;36272;59.400;17.982;2023-05-11T00:19:23;101978.88;;;10.30;51.86
50364;BME280;36272;59.400;17.982;2023-05-11T00:24:25;101984.34;;;10.22;52.12
50364;BME280;36272;59.400;17.982;2023-05-11T00:29:27;101983.81;;;10.11;52.37
50364;BME280;36272;59.400;17.982;2023-05-11T00:34:28;101983.91;;;10.03;52.23
50364;BME280;36272;59.400;17.982;2023-05-11T00:39:30;101985.88;;;9.94;52.51
50364;BME280;36272;59.400;17.982;2023-05-11T00:44:31;101980.81;;;9.85;52.67
50364;BME280;36272;59.400;17.982;2023-05-11T00:49:33;101984.59;;;9.75;53.14
50364;BME280;36272;59.400;17.982;2023-05-11T00:54:35;101982.38;;;9.64;53.18
50364;BME280;36272;59.400;17.982;2023-05-11T00:59:37;101980.81;;;9.55;53.25
50364;BME280;36272;59.400;17.982;2023-05-11T01:04:38;101981.75;;;9.47;53.60
50364;BME280;36272;59.400;17.982;2023-05-11T01:15:09;101972.88;;;9.31;54.15
50364;BME280;36272;59.400;17.982;2023-05-11T01:20:17;101978.13;;;9.25;54.46
50364;BME280;36272;59.400;17.982;2023-05-11T01:25:51;101981.38;;;9.20;54.32
50364;BME280;36272;59.400;17.982;2023-05-11T01:31:03;101980.44;;;9.13;54.73
50364;BME280;36272;59.400;17.982;2023-05-11T01:36:09;101970.66;;;9.05;54.74
50364;BME280;36272;59.400;17.982;2023-05-11T01:41:14;101972.56;;;8.96;54.95
50364;BME280;36272;59.400;17.982;2023-05-11T01:46:18;101982.13;;;8.90;55.00
50364;BME280;36272;59.400;17.982;2023-05-11T01:51:25;101977.06;;;8.81;55.29
50364;BME280;36272;59.400;17.982;2023-05-11T01:56:27;101982.50;;;8.87;53.81
50364;BME280;36272;59.400;17.982;2023-05-11T02:01:33;101983.31;;;8.65;55.04
50364;BME280;36272;59.400;17.982;2023-05-11T02:06:36;101984.41;;;8.55;55.44
50364;BME280;36272;59.400;17.982;2023-05-11T02:11:39;101999.44;;;8.48;55.53
50364;BME280;36272;59.400;17.982;2023-05-11T02:16:43;101993.13;;;8.41;55.88
50364;BME280;36272;59.400;17.982;2023-05-11T02:21:46;102008.16;;;8.33;56.09
50364;BME280;36272;59.400;17.982;2023-05-11T02:26:49;102011.72;;;8.26;56.20
50364;BME280;36272;59.400;17.982;2023-05-11T02:32:05;101990.91;;;8.21;56.97
50364;BME280;36272;59.400;17.982;2023-05-11T02:37:17;101996.09;;;8.14;57.09
50364;BME280;36272;59.400;17.982;2023-05-11T02:42:22;102003.78;;;8.09;57.08
50364;BME280;36272;59.400;17.982;2023-05-11T02:47:30;102002.66;;;8.03;57.27
50364;BME280;36272;59.400;17.982;2023-05-11T02:52:33;101999.69;;;7.98;57.16
50364;BME280;36272;59.400;17.982;2023-05-11T02:57:37;102007.03;;;7.96;57.41
50364;BME280;36272;59.400;17.982;2023-05-11T03:02:39;102018.03;;;7.93;57.47
50364;BME280;36272;59.400;17.982;2023-05-11T03:07:41;102020.03;;;7.91;57.72
50364;BME280;36272;59.400;17.982;2023-05-11T03:12:48;102006.03;;;7.89;58.43
50364;BME280;36272;59.400;17.982;2023-05-11T03:17:51;102011.38;;;7.89;58.16
50364;BME280;36272;59.400;17.982;2023-05-11T03:22:54;102004.38;;;7.88;58.24
50364;BME280;36272;59.400;17.982;2023-05-11T03:27:57;102011.38;;;7.89;58.35
50364;BME280;36272;59.400;17.982;2023-05-11T03:32:59;102022.69;;;7.91;58.35
50364;BME280;36272;59.400;17.982;2023-05-11T03:38:01;102022.34;;;7.94;58.35
50364;BME280;36272;59.400;17.982;2023-05-11T03:43:05;102021.34;;;7.95;58.56
50364;BME280;36272;59.400;17.982;2023-05-11T03:48:08;102012.00;;;7.99;58.70
50364;BME280;36272;59.400;17.982;2023-05-11T03:53:12;102027.97;;;8.08;58.99
50364;BME280;36272;59.400;17.982;2023-05-11T03:58:14;102033.72;;;8.19;58.59
50364;BME280;36272;59.400;17.982;2023-05-11T04:03:16;102033.69;;;8.28;58.76
50364;BME280;36272;59.400;17.982;2023-05-11T04:08:18;102039.47;;;8.40;58.78
50364;BME280;36272;59.400;17.982;2023-05-11T04:13:19;102033.78;;;8.51;58.95
50364;BME280;36272;59.400;17.982;2023-05-11T04:18:21;102032.19;;;8.65;59.05
50364;BME280;36272;59.400;17.982;2023-05-11T04:23:23;102028.56;;;8.81;58.71
50364;BME280;36272;59.400;17.982;2023-05-11T04:28:24;102031.13;;;8.98;58.20
50364;BME280;36272;59.400;17.982;2023-05-11T04:33:28;102036.94;;;9.16;58.05
50364;BME280;36272;59.400;17.982;2023-05-11T04:38:29;102037.44;;;9.35;57.90
50364;BME280;36272;59.400;17.982;2023-05-11T04:43:31;102025.56;;;9.52;57.64
50364;BME280;36272;59.400;17.982;2023-05-11T04:48:33;102028.38;;;9.74;57.40
50364;BME280;36272;59.400;17.982;2023-05-11T04:53:34;102022.72;;;9.99;56.77
50364;BME280;36272;59.400;17.982;2023-05-11T04:58:36;102025.47;;;10.21;56.51
50364;BME280;36272;59.400;17.982;2023-05-11T05:03:37;102029.66;;;10.45;55.93
50364;BME280;36272;59.400;17.982;2023-05-11T05:08:39;102026.34;;;10.65;55.64
50364;BME280;36272;59.400;17.982;2023-05-11T05:13:41;102033.19;;;10.89;55.16
50364;BME280;36272;59.400;17.982;2023-05-11T05:18:42;102032.16;;;11.12;54.61
50364;BME280;36272;59.400;17.982;2023-05-11T05:23:44;102044.28;;;11.36;54.43
50364;BME280;36272;59.400;17.982;2023-05-11T05:28:46;102033.88;;;11.55;54.10
50364;BME280;36272;59.400;17.982;2023-05-11T05:33:47;102041.47;;;11.80;53.75
50364;BME280;36272;59.400;17.982;2023-05-11T05:38:49;102041.19;;;12.03;53.43
50364;BME280;36272;59.400;17.982;2023-05-11T05:43:51;102042.31;;;12.29;53.16
50364;BME280;36272;59.400;17.982;2023-05-11T05:48:52;102042.59;;;12.47;52.83
50364;BME280;36272;59.400;17.982;2023-05-11T05:53:54;102045.94;;;12.70;52.42
50364;BME280;36272;59.400;17.982;2023-05-11T05:58:55;102039.16;;;12.94;52.18
50364;BME280;36272;59.400;17.982;2023-05-11T06:03:57;102042.66;;;13.15;51.83
50364;BME280;36272;59.400;17.982;2023-05-11T06:08:59;102042.88;;;13.33;51.33
50364;BME280;36272;59.400;17.982;2023-05-11T06:14:01;102049.66;;;13.56;51.27
50364;BME280;36272;59.400;17.982;2023-05-11T06:19:02;102040.75;;;13.76;50.90
50364;BME280;36272;59.400;17.982;2023-05-11T06:24:04;102046.25;;;13.94;50.59
50364;BME280;36272;59.400;17.982;2023-05-11T06:29:06;102043.72;;;14.13;50.40
50364;BME280;36272;59.400;17.982;2023-05-11T06:34:08;102043.41;;;14.35;49.66
50364;BME280;36272;59.400;17.982;2023-05-11T06:39:09;102048.88;;;14.53;49.23
50364;BME280;36272;59.400;17.982;2023-05-11T06:44:11;102051.72;;;14.72;49.38
50364;BME280;36272;59.400;17.982;2023-05-11T06:49:13;102051.78;;;14.91;49.16
50364;BME280;36272;59.400;17.982;2023-05-11T06:54:15;102061.41;;;15.05;48.74
50364;BME280;36272;59.400;17.982;2023-05-11T06:59:17;102058.22;;;15.15;48.51
50364;BME280;36272;59.400;17.982;2023-05-11T07:04:18;102050.56;;;15.37;48.05
50364;BME280;36272;59.400;17.982;2023-05-11T07:09:20;102047.66;;;15.57;47.74
50364;BME280;36272;59.400;17.982;2023-05-11T07:14:21;102057.28;;;15.72;47.50
50364;BME280;36272;59.400;17.982;2023-05-11T07:19:23;102057.94;;;15.86;47.34
50364;BME280;36272;59.400;17.982;2023-05-11T07:24:25;102063.38;;;16.04;47.19
50364;BME280;36272;59.400;17.982;2023-05-11T07:29:26;102059.88;;;16.16;46.98
50364;BME280;36272;59.400;17.982;2023-05-11T07:34:28;102071.47;;;16.35;46.58
50364;BME280;36272;59.400;17.982;2023-05-11T07:39:30;102073.69;;;16.57;45.90
50364;BME280;36272;59.400;17.982;2023-05-11T07:44:31;102080.09;;;16.74;45.81
50364;BME280;36272;59.400;17.982;2023-05-11T07:49:33;102068.84;;;16.89;45.33
50364;BME280;36272;59.400;17.982;2023-05-11T07:54:35;102080.66;;;17.07;45.26
50364;BME280;36272;59.400;17.982;2023-05-11T07:59:36;102087.75;;;17.20;45.15
50364;BME280;36272;59.400;17.982;2023-05-11T08:04:38;102077.25;;;17.35;44.75
50364;BME280;36272;59.400;17.982;2023-05-11T08:09:39;102074.94;;;17.51;44.46
50364;BME280;36272;59.400;17.982;2023-05-11T08:14:41;102085.84;;;17.68;44.03
50364;BME280;36272;59.400;17.982;2023-05-11T08:19:43;102091.59;;;17.83;44.10
50364;BME280;36272;59.400;17.982;2023-05-11T08:24:45;102083.59;;;18.01;43.52
50364;BME280;36272;59.400;17.982;2023-05-11T08:29:47;102093.44;;;18.19;43.13
50364;BME280;36272;59.400;17.982;2023-05-11T08:34:48;102085.03;;;18.32;42.97
50364;BME280;36272;59.400;17.982;2023-05-11T08:39:50;102083.66;;;18.47;42.29
50364;BME280;36272;59.400;17.982;2023-05-11T08:44:54;102072.03;;;18.63;42.12
50364;BME280;36272;59.400;17.982;2023-05-11T08:49:57;102076.47;;;18.98;41.90
50364;BME280;36272;59.400;17.982;2023-05-11T08:54:59;102092.25;;;19.01;41.17
50364;BME280;36272;59.400;17.982;2023-05-11T09:00:01;102079.16;;;19.15;41.32
50364;BME280;36272;59.400;17.982;2023-05-11T09:05:03;102088.94;;;19.34;40.93
50364;BME280;36272;59.400;17.982;2023-05-11T09:10:06;102082.91;;;19.49;39.86
50364;BME280;36272;59.400;17.982;2023-05-11T09:15:09;102086.69;;;19.65;39.84
50364;BME280;36272;59.400;17.982;2023-05-11T09:20:11;102086.63;;;19.82;39.54
50364;BME280;36272;59.400;17.982;2023-05-11T09:25:14;102077.56;;;19.93;39.03
50364;BME280;36272;59.400;17.982;2023-05-11T09:30:21;102090.25;;;20.10;38.86
50364;BME280;36272;59.400;17.982;2023-05-11T09:35:25;102079.25;;;20.21;38.31
50364;BME280;36272;59.400;17.982;2023-05-11T09:40:28;102088.13;;;20.39;38.08
50364;BME280;36272;59.400;17.982;2023-05-11T09:45:41;102083.41;;;20.57;38.13
50364;BME280;36272;59.400;17.982;2023-05-11T09:50:43;102077.84;;;20.69;37.52
50364;BME280;36272;59.400;17.982;2023-05-11T09:55:52;102074.97;;;20.80;37.11
50364;BME280;36272;59.400;17.982;2023-05-11T10:00:54;102099.53;;;20.91;36.52
50364;BME280;36272;59.400;17.982;2023-05-11T10:06:00;102072.41;;;20.96;36.58
50364;BME280;36272;59.400;17.982;2023-05-11T10:11:02;102089.88;;;21.10;36.45
50364;BME280;36272;59.400;17.982;2023-05-11T10:16:05;102081.81;;;21.21;35.87
50364;BME280;36272;59.400;17.982;2023-05-11T10:21:07;102084.09;;;21.34;35.57
50364;BME280;36272;59.400;17.982;2023-05-11T10:26:09;102084.44;;;21.48;35.88
50364;BME280;36272;59.400;17.982;2023-05-11T10:31:12;102072.03;;;21.63;35.84
50364;BME280;36272;59.400;17.982;2023-05-11T10:36:14;102080.78;;;21.75;35.81
50364;BME280;36272;59.400;17.982;2023-05-11T11:02:57;102076.16;;;22.65;33.36
50364;BME280;36272;59.400;17.982;2023-05-11T11:08:00;102079.16;;;22.84;33.20
50364;BME280;36272;59.400;17.982;2023-05-11T11:13:08;102066.31;;;23.21;33.58
50364;BME280;36272;59.400;17.982;2023-05-11T11:18:36;102078.34;;;25.21;32.12
50364;BME280;36272;59.400;17.982;2023-05-11T11:39:49;102092.16;;;35.18;24.37
50364;BME280;36272;59.400;17.982;2023-05-11T11:44:50;102094.28;;;36.12;24.03
50364;BME280;36272;59.400;17.982;2023-05-11T11:49:53;102080.22;;;36.91;23.05
50364;BME280;36272;59.400;17.982;2023-05-11T11:54:56;102079.81;;;37.66;22.67
50364;BME280;36272;59.400;17.982;2023-05-11T12:00:07;102094.78;;;38.49;22.65
50364;BME280;36272;59.400;17.982;2023-05-11T12:05:13;102087.31;;;39.02;21.82
50364;BME280;36272;59.400;17.982;2023-05-11T12:10:20;102107.09;;;40.09;21.33
50364;BME280;36272;59.400;17.982;2023-05-11T12:15:23;102106.41;;;40.37;20.92
50364;BME280;36272;59.400;17.982;2023-05-11T12:20:26;102099.66;;;40.85;21.44
50364;BME280;36272;59.400;17.982;2023-05-11T12:25:27;102126.91;;;40.81;20.38
50364;BME280;36272;59.400;17.982;2023-05-11T12:30:32;102112.66;;;39.94;20.56
50364;BME280;36272;59.400;17.982;2023-05-11T12:35:34;102119.09;;;40.13;20.27
50364;BME280;36272;59.400;17.982;2023-05-11T12:40:36;102108.72;;;40.13;20.26
50364;BME280;36272;59.400;17.982;2023-05-11T12:45:39;102110.31;;;40.07;20.28
50364;BME280;36272;59.400;17.982;2023-05-11T12:50:45;102113.59;;;40.27;20.23
50364;BME280;36272;59.400;17.982;2023-05-11T12:55:58;102102.09;;;39.69;20.06
50364;BME280;36272;59.400;17.982;2023-05-11T13:01:00;102110.69;;;40.06;20.15
50364;BME280;36272;59.400;17.982;2023-05-11T13:06:09;102108.00;;;40.42;20.11
50364;BME280;36272;59.400;17.982;2023-05-11T13:11:22;102106.41;;;40.37;19.98
50364;BME280;36272;59.400;17.982;2023-05-11T13:16:27;102100.66;;;39.90;19.80
50364;BME280;36272;59.400;17.982;2023-05-11T13:21:29;102108.25;;;40.00;20.30
50364;BME280;36272;59.400;17.982;2023-05-11T13:26:33;102104.03;;;40.54;19.52
50364;BME280;36272;59.400;17.982;2023-05-11T13:31:44;102096.41;;;40.54;19.17
50364;BME280;36272;59.400;17.982;2023-05-11T13:36:46;102108.66;;;40.03;19.31
50364;BME280;36272;59.400;17.982;2023-05-11T13:41:52;102089.34;;;39.72;19.51
50364;BME280;36272;59.400;17.982;2023-05-11T13:46:54;102102.69;;;39.34;20.03
50364;BME280;36272;59.400;17.982;2023-05-11T13:51:56;102105.44;;;39.26;19.67
50364;BME280;36272;59.400;17.982;2023-05-11T13:56:59;102071.69;;;38.52;20.03
50364;BME280;36272;59.400;17.982;2023-05-11T14:02:01;102105.00;;;38.38;19.80
50364;BME280;36272;59.400;17.982;2023-05-11T14:07:02;102087.19;;;38.12;19.81
50364;BME280;36272;59.400;17.982;2023-05-11T14:12:05;102092.47;;;37.90;20.08
50364;BME280;36272;59.400;17.982;2023-05-11T14:17:08;102090.50;;;37.60;20.19
50364;BME280;36272;59.400;17.982;2023-05-11T14:22:10;102084.72;;;37.46;20.09
50364;BME280;36272;59.400;17.982;2023-05-11T14:27:11;102089.28;;;37.34;20.16
50364;BME280;36272;59.400;17.982;2023-05-11T14:32:13;102100.75;;;37.53;19.98
50364;BME280;36272;59.400;17.982;2023-05-11T14:37:15;102100.91;;;37.63;20.21
50364;BME280;36272;59.400;17.982;2023-05-11T14:42:17;102090.22;;;37.42;20.02
50364;BME280;36272;59.400;17.982;2023-05-11T14:47:32;102084.53;;;37.08;20.19
50364;BME280;36272;59.400;17.982;2023-05-11T14:52:37;102103.06;;;36.34;20.53
50364;BME280;36272;59.400;17.982;2023-05-11T14:57:39;102094.56;;;35.36;20.45
50364;BME280;36272;59.400;17.982;2023-05-11T15:02:41;102098.25;;;34.19;21.30
50364;BME280;36272;59.400;17.982;2023-05-11T15:07:42;102094.41;;;33.20;21.54
50364;BME280;36272;59.400;17.982;2023-05-11T15:12:44;102088.91;;;32.53;21.90
50364;BME280;36272;59.400;17.982;2023-05-11T15:17:47;102085.72;;;32.09;22.38
50364;BME280;36272;59.400;17.982;2023-05-11T15:22:48;102082.16;;;31.57;22.55
50364;BME280;36272;59.400;17.982;2023-05-11T15:27:50;102090.03;;;31.37;22.92
50364;BME280;36272;59.400;17.982;2023-05-11T15:32:52;102093.13;;;30.79;23.27
50364;BME280;36272;59.400;17.982;2023-05-11T15:37:59;102099.47;;;30.01;23.63
50364;BME280;36272;59.400;17.982;2023-05-11T15:43:03;102080.50;;;29.09;24.17
50364;BME280;36272;59.400;17.982;2023-05-11T15:48:12;102088.66;;;28.10;24.67
50364;BME280;36272;59.400;17.982;2023-05-11T15:53:15;102096.28;;;27.48;25.13
50364;BME280;36272;59.400;17.982;2023-05-11T15:58:17;102091.06;;;26.85;25.66
50364;BME280;36272;59.400;17.982;2023-05-11T16:03:19;102091.69;;;26.25;26.19
50364;BME280;36272;59.400;17.982;2023-05-11T16:08:20;102104.22;;;25.63;26.68
50364;BME280;36272;59.400;17.982;2023-05-11T16:13:22;102093.97;;;25.20;27.02
50364;BME280;36272;59.400;17.982;2023-05-11T16:18:24;102114.59;;;24.78;27.09
50364;BME280;36272;59.400;17.982;2023-05-11T16:23:29;102108.03;;;24.29;27.48
50364;BME280;36272;59.400;17.982;2023-05-11T16:28:30;102111.22;;;23.86;27.60
50364;BME280;36272;59.400;17.982;2023-05-11T16:33:33;102106.13;;;23.48;28.16
50364;BME280;36272;59.400;17.982;2023-05-11T16:38:41;102100.16;;;23.10;28.31
50364;BME280;36272;59.400;17.982;2023-05-11T16:43:45;102104.53;;;22.69;29.03
50364;BME280;36272;59.400;17.982;2023-05-11T16:48:50;102119.97;;;22.38;29.09
50364;BME280;36272;59.400;17.982;2023-05-11T16:53:52;102120.16;;;22.05;29.14
50364;BME280;36272;59.400;17.982;2023-05-11T16:58:53;102126.25;;;21.75;29.57
50364;BME280;36272;59.400;17.982;2023-05-11T17:03:55;102114.91;;;21.45;29.89
50364;BME280;36272;59.400;17.982;2023-05-11T17:08:57;102120.16;;;21.19;30.21
50364;BME280;36272;59.400;17.982;2023-05-11T17:13:59;102110.72;;;20.94;30.43
50364;BME280;36272;59.400;17.982;2023-05-11T17:19:00;102124.59;;;20.71;30.77
50364;BME280;36272;59.400;17.982;2023-05-11T17:24:02;102124.56;;;20.65;30.68
50364;BME280;36272;59.400;17.982;2023-05-11T17:29:04;102130.88;;;20.49;30.83
50364;BME280;36272;59.400;17.982;2023-05-11T17:34:05;102126.56;;;20.26;30.75
50364;BME280;36272;59.400;17.982;2023-05-11T17:39:09;102130.34;;;20.02;30.98
50364;BME280;36272;59.400;17.982;2023-05-11T17:44:12;102128.91;;;19.77;31.20
50364;BME280;36272;59.400;17.982;2023-05-11T17:49:16;102133.53;;;19.60;31.50
50364;BME280;36272;59.400;17.982;2023-05-11T17:54:20;102133.06;;;19.46;31.62
50364;BME280;36272;59.400;17.982;2023-05-11T17:59:22;102133.41;;;19.32;31.72
50364;BME280;36272;59.400;17.982;2023-05-11T18:04:26;102138.09;;;19.20;31.74
50364;BME280;36272;59.400;17.982;2023-05-11T18:09:35;102124.84;;;19.07;32.50
50364;BME280;36272;59.400;17.982;2023-05-11T18:14:37;102141.41;;;18.93;32.35
50364;BME280;36272;59.400;17.982;2023-05-11T18:19:39;102145.72;;;18.77;32.70
50364;BME280;36272;59.400;17.982;2023-05-11T18:24:40;102152.50;;;18.63;32.79
50364;BME280;36272;59.400;17.982;2023-05-11T18:29:47;102148.66;;;18.47;32.98
50364;BME280;36272;59.400;17.982;2023-05-11T18:34:49;102170.03;;;18.31;33.13
50364;BME280;36272;59.400;17.982;2023-05-11T18:39:53;102165.34;;;18.15;33.42
50364;BME280;36272;59.400;17.982;2023-05-11T18:44:55;102183.81;;;17.94;33.42
50364;BME280;36272;59.400;17.982;2023-05-11T18:49:57;102184.28;;;17.79;33.39
50364;BME280;36272;59.400;17.982;2023-05-11T18:54:58;102186.06;;;17.61;34.00
50364;BME280;36272;59.400;17.982;2023-05-11T19:00:00;102182.97;;;17.46;33.90
50364;BME280;36272;59.400;17.982;2023-05-11T19:05:20;102170.50;;;17.33;34.35
50364;BME280;36272;59.400;17.982;2023-05-11T19:10:22;102196.09;;;17.18;34.18
50364;BME280;36272;59.400;17.982;2023-05-11T19:15:31;102199.81;;;17.05;34.48
50364;BME280;36272;59.400;17.982;2023-05-11T19:20:36;102198.31;;;16.91;34.98
50364;BME280;36272;59.400;17.982;2023-05-11T19:25:38;102210.56;;;16.75;34.92
50364;BME280;36272;59.400;17.982;2023-05-11T19:30:57;102188.53;;;16.59;35.40
50364;BME280;36272;59.400;17.982;2023-05-11T19:36:02;102211.34;;;16.45;35.26
50364;BME280;36272;59.400;17.982;2023-05-11T19:41:04;102209.84;;;16.30;35.99
50364;BME280;36272;59.400;17.982;2023-05-11T19:46:06;102217.03;;;16.18;36.58
50364;BME280;36272;59.400;17.982;2023-05-11T19:51:13;102203.28;;;16.01;37.48
50364;BME280;36272;59.400;17.982;2023-05-11T19:56:36;102211.91;;;15.91;38.22
50364;BME280;36272;59.400;17.982;2023-05-11T20:07:35;102219.81;;;15.60;38.44
50364;BME280;36272;59.400;17.982;2023-05-11T20:12:44;102223.44;;;15.48;38.99
50364;BME280;36272;59.400;17.982;2023-05-11T20:17:46;102215.66;;;15.32;39.51
50364;BME280;36272;59.400;17.982;2023-05-11T20:22:56;102216.56;;;15.20;39.39
50364;BME280;36272;59.400;17.982;2023-05-11T20:28:09;102210.41;;;15.06;39.69
50364;BME280;36272;59.400;17.982;2023-05-11T20:33:11;102218.34;;;14.94;39.98
50364;BME280;36272;59.400;17.982;2023-05-11T20:38:16;102241.59;;;14.81;39.93
50364;BME280;36272;59.400;17.982;2023-05-11T20:43:26;102233.56;;;14.68;40.42
50364;BME280;36272;59.400;17.982;2023-05-11T20:48:37;102242.72;;;14.53;40.71
50364;BME280;36272;59.400;17.982;2023-05-11T20:53:39;102236.31;;;14.41;40.83
50364;BME280;36272;59.400;17.982;2023-05-11T20:58:41;102234.72;;;14.26;41.06
50364;BME280;36272;59.400;17.982;2023-05-11T21:03:43;102249.19;;;14.19;41.43
50364;BME280;36272;59.400;17.982;2023-05-11T21:08:44;102250.88;;;14.06;41.61
50364;BME280;36272;59.400;17.982;2023-05-11T21:13:46;102258.13;;;13.92;41.91
50364;BME280;36272;59.400;17.982;2023-05-11T21:18:49;102257.91;;;13.80;42.22
50364;BME280;36272;59.400;17.982;2023-05-11T21:23:51;102253.97;;;13.70;42.42
50364;BME280;36272;59.400;17.982;2023-05-11T21:28:52;102259.34;;;13.56;42.46
50364;BME280;36272;59.400;17.982;2023-05-11T21:33:57;102247.94;;;13.41;42.82
50364;BME280;36272;59.400;17.982;2023-05-11T21:38:58;102272.47;;;13.31;43.02
50364;BME280;36272;59.400;17.982;2023-05-11T21:44:00;102277.63;;;13.19;43.08
50364;BME280;36272;59.400;17.982;2023-05-11T21:49:02;102273.84;;;13.06;43.49
50364;BME280;36272;59.400;17.982;2023-05-11T21:54:03;102275.47;;;12.94;43.88
50364;BME280;36272;59.400;17.982;2023-05-11T21:59:05;102282.44;;;12.82;44.34
50364;BME280;36272;59.400;17.982;2023-05-11T22:04:07;102285.66;;;12.70;44.61
50364;BME280;36272;59.400;17.982;2023-05-11T22:09:10;102274.88;;;12.57;44.98
50364;BME280;36272;59.400;17.982;2023-05-11T22:14:11;102287.34;;;12.43;45.34
50364;BME280;36272;59.400;17.982;2023-05-11T22:19:13;102298.84;;;12.30;45.62
50364;BME280;36272;59.400;17.982;2023-05-11T22:24:15;102303.69;;;12.19;46.04
50364;BME280;36272;59.400;17.982;2023-05-11T22:29:16;102305.28;;;12.07;45.80
50364;BME280;36272;59.400;17.982;2023-05-11T22:34:19;102297.06;;;11.94;45.97
50364;BME280;36272;59.400;17.982;2023-05-11T22:39:23;102308.94;;;11.84;45.90
50364;BME280;36272;59.400;17.982;2023-05-11T22:44:40;102296.50;;;11.77;46.44
50364;BME280;36272;59.400;17.982;2023-05-11T22:49:42;102317.44;;;11.66;46.53
50364;BME280;36272;59.400;17.982;2023-05-11T22:54:44;102309.88;;;11.55;46.87
50364;BME280;36272;59.400;17.982;2023-05-11T22:59:45;102320.75;;;11.47;46.80
50364;BME280;36272;59.400;17.982;2023-05-11T23:04:48;102302.25;;;11.37;47.13
50364;BME280;36272;59.400;17.982;2023-05-11T23:09:51;102321.13;;;11.28;47.36
50364;BME280;36272;59.400;17.982;2023-05-11T23:14:53;102324.31;;;11.17;47.76
50364;BME280;36272;59.400;17.982;2023-05-11T23:19:54;102336.13;;;11.08;47.80
50364;BME280;36272;59.400;17.982;2023-05-11T23:24:56;102328.19;;;10.99;48.00
50364;BME280;36272;59.400;17.982;2023-05-11T23:30:06;102314.88;;;10.91;48.32
50364;BME280;36272;59.400;17.982;2023-05-11T23:35:08;102335.00;;;10.87;48.40
50364;BME280;36272;59.400;17.982;2023-05-11T23:40:10;102338.63;;;10.79;48.56
50364;BME280;36272;59.400;17.982;2023-05-11T23:45:11;102335.84;;;10.73;48.69
50364;BME280;36272;59.400;17.982;2023-05-11T23:50:13;102331.03;;;10.68;48.77
50364;BME280;36272;59.400;17.982;2023-05-11T23:55:15;102332.59;;;10.62;49.12
